createdAt,value
2022-09-21T00:01:45.843Z,95180.63
2022-09-21T00:04:54.653Z,95186.47
2022-09-21T00:08:08.707Z,95195.25
2022-09-21T00:11:16.032Z,95199.25
2022-09-21T00:14:20.444Z,95195.31
2022-09-21T00:17:26.733Z,95199.56
2022-09-21T00:20:30.239Z,95196.91
2022-09-21T00:23:39.926Z,95187.03
2022-09-21T00:26:44.583Z,95184.66
2022-09-21T00:29:49.349Z,95186.25
2022-09-21T00:32:55.801Z,95189.69
2022-09-21T00:36:05.847Z,95187.16
2022-09-21T00:39:12.348Z,95180.44
2022-09-21T00:42:22.197Z,95182.91
2022-09-21T00:45:26.674Z,95171.78
2022-09-21T00:48:32.091Z,95173.06
2022-09-21T00:51:37.551Z,95175.22
2022-09-21T00:54:52.220Z,95171.47
2022-09-21T00:58:01.584Z,95175.72
2022-09-21T01:01:06.489Z,95175.22
2022-09-21T01:04:10.496Z,95177.59
2022-09-21T01:07:18.658Z,95172.25
2022-09-21T01:10:23.416Z,95179.28
2022-09-21T01:13:38.294Z,95185.09
2022-09-21T01:16:49.956Z,95171.59
2022-09-21T01:20:27.445Z,95165.66
2022-09-21T01:23:45.130Z,95165.00
2022-09-21T01:27:33.239Z,95170.97
2022-09-21T01:30:45.744Z,95164.47
2022-09-21T01:33:57.487Z,95170.50
2022-09-21T01:37:05.915Z,95162.31
2022-09-21T01:40:14.020Z,95160.44
2022-09-21T01:43:25.531Z,95154.91
2022-09-21T01:46:34.077Z,95156.22
2022-09-21T01:49:39.778Z,95155.69
2022-09-21T01:52:48.775Z,95155.91
2022-09-21T01:55:55.202Z,95151.94
2022-09-21T01:59:06.475Z,95161.03
2022-09-21T02:02:18.620Z,95161.03
2022-09-21T02:05:24.944Z,95149.59
2022-09-21T02:08:29.088Z,95143.59
2022-09-21T02:11:32.609Z,95154.91
2022-09-21T02:14:38.674Z,95159.44
2022-09-21T02:17:58.732Z,95165.38
2022-09-21T02:21:09.182Z,95163.50
2022-09-21T02:24:21.021Z,95169.31
2022-09-21T02:27:33.510Z,95160.34
2022-09-21T02:30:38.121Z,95164.41
2022-09-21T02:33:52.992Z,95172.88
2022-09-21T02:37:03.920Z,95161.06
2022-09-21T02:40:15.378Z,95170.50
2022-09-21T02:43:23.869Z,95164.88
2022-09-21T02:46:30.694Z,95166.75
2022-09-21T02:49:39.450Z,95175.22
2022-09-21T02:52:45.198Z,95169.72
2022-09-21T02:55:56.306Z,95174.25
2022-09-21T02:59:04.680Z,95175.53
2022-09-21T03:02:08.267Z,95174.75
2022-09-21T03:05:14.414Z,95179.56
2022-09-21T03:08:17.825Z,95174.75
2022-09-21T03:11:21.511Z,95177.28
2022-09-21T03:14:24.590Z,95175.34
2022-09-21T03:17:27.877Z,95173.94
2022-09-21T03:20:32.648Z,95176.59
2022-09-21T03:23:35.717Z,95171.59
2022-09-21T03:26:39.177Z,95173.94
2022-09-21T03:29:42.285Z,95178.00
2022-09-21T03:32:45.483Z,95183.22
2022-09-21T03:35:51.277Z,95175.22
2022-09-21T03:38:54.479Z,95178.38
2022-09-21T03:41:57.985Z,95171.19
2022-09-21T03:45:01.265Z,95177.69
2022-09-21T03:48:04.586Z,95177.22
2022-09-21T03:51:09.174Z,95182.72
2022-09-21T03:54:12.413Z,95191.09
2022-09-21T03:57:15.585Z,95184.72
2022-09-21T04:00:19.116Z,95182.31
2022-09-21T04:03:22.354Z,95199.47
2022-09-21T04:06:27.567Z,95192.97
2022-09-21T04:09:31.486Z,95186.47
2022-09-21T04:12:34.670Z,95189.00
2022-09-21T04:15:37.944Z,95185.75
2022-09-21T04:18:41.166Z,95194.53
2022-09-21T04:21:46.046Z,95190.47
2022-09-21T04:24:49.628Z,95185.38
2022-09-21T04:27:53.170Z,95199.06
2022-09-21T04:30:56.731Z,95197.00
2022-09-21T04:33:59.938Z,95194.16
2022-09-21T04:37:04.665Z,95199.47
2022-09-21T04:40:09.487Z,95195.53
2022-09-21T04:43:13.105Z,95198.50
2022-09-21T04:46:18.636Z,95200.69
2022-09-21T04:49:21.698Z,95199.66
2022-09-21T04:52:26.784Z,95203.41
2022-09-21T04:55:30.004Z,95203.13
2022-09-21T04:58:34.125Z,95204.69
2022-09-21T05:01:37.366Z,95199.66
2022-09-21T05:04:40.712Z,95199.88
2022-09-21T05:07:45.357Z,95202.34
2022-09-21T05:10:47.372Z,95206.78
2022-09-21T05:13:50.718Z,95208.16
2022-09-21T05:16:53.717Z,95207.16
2022-09-21T05:19:56.890Z,95210.50
2022-09-21T05:23:03.386Z,95204.41
2022-09-21T05:26:06.930Z,95211.41
2022-09-21T05:29:10.998Z,95204.69
2022-09-21T05:32:23.521Z,95217.72
2022-09-21T05:35:35.412Z,95206.00
2022-09-21T05:38:40.980Z,95207.59
2022-09-21T05:41:44.599Z,95211.22
2022-09-21T05:44:49.956Z,95204.63
2022-09-21T05:48:05.173Z,95210.13
2022-09-21T05:51:15.348Z,95201.06
2022-09-21T05:54:27.683Z,95210.63
2022-09-21T05:57:42.594Z,95210.31
2022-09-21T06:00:57.888Z,95205.00
2022-09-21T06:04:03.483Z,95206.88
2022-09-21T06:07:06.512Z,95210.31
2022-09-21T06:10:13.746Z,95215.03
2022-09-21T06:13:16.853Z,95205.47
2022-09-21T06:16:22.375Z,95206.28
2022-09-21T06:19:25.484Z,95213.16
2022-09-21T06:22:28.515Z,95220.97
2022-09-21T06:25:33.204Z,95207.53
2022-09-21T06:28:36.371Z,95202.22
2022-09-21T06:31:39.478Z,95211.09
2022-09-21T06:34:43.175Z,95223.13
2022-09-21T06:37:47.514Z,95226.28
2022-09-21T06:40:53.242Z,95229.53
2022-09-21T06:43:57.305Z,95230.00
2022-09-21T06:47:00.481Z,95222.91
2022-09-21T06:50:03.529Z,95227.75
2022-09-21T06:53:07.577Z,95220.84
2022-09-21T06:56:12.410Z,95233.50
2022-09-21T06:59:15.588Z,95233.75
2022-09-21T07:02:18.889Z,95228.72
2022-09-21T07:05:22.104Z,95227.75
2022-09-21T07:11:49.840Z,95224.06
2022-09-21T07:14:52.978Z,95224.88
2022-09-21T07:18:05.571Z,95225.44
2022-09-21T07:21:10.596Z,95219.81
2022-09-21T07:24:15.228Z,95223.88
2022-09-21T07:27:19.622Z,95222.91
2022-09-21T07:30:22.735Z,95217.09
2022-09-21T07:33:26.685Z,95213.94
2022-09-21T07:36:29.770Z,95222.72
2022-09-21T07:39:33.638Z,95226.47
2022-09-21T07:42:38.352Z,95214.59
2022-09-21T07:45:41.470Z,95220.53
2022-09-21T07:48:44.824Z,95216.28
2022-09-21T07:51:47.922Z,95221.94
2022-09-21T07:54:50.952Z,95215.03
2022-09-21T07:58:13.138Z,95225.06
2022-09-21T08:01:16.282Z,95220.84
2022-09-21T08:04:19.424Z,95221.81
2022-09-21T08:07:22.496Z,95226.28
2022-09-21T08:10:28.863Z,95228.34
2022-09-21T08:13:33.455Z,95220.19
2022-09-21T08:16:39.517Z,95215.63
2022-09-21T08:19:42.857Z,95216.59
2022-09-21T08:22:46.341Z,95221.94
2022-09-21T08:25:49.982Z,95221.94
2022-09-21T08:28:59.557Z,95221.94
2022-09-21T08:32:03.303Z,95218.97
2022-09-21T08:35:07.464Z,95216.97
2022-09-21T08:38:11.054Z,95202.97
2022-09-21T08:41:18.562Z,95225.94
2022-09-21T08:44:26.765Z,95210.47
2022-09-21T08:47:40.766Z,95211.25
2022-09-21T08:50:48.976Z,95212.81
2022-09-21T08:53:55.234Z,95205.41
2022-09-21T08:57:06.507Z,95201.47
2022-09-21T09:00:15.995Z,95201.94
2022-09-21T09:03:54.904Z,95200.38
2022-09-21T09:07:09.236Z,95195.34
2022-09-21T09:10:29.363Z,95196.13
2022-09-21T09:13:51.110Z,95184.22
2022-09-21T09:17:12.778Z,95179.66
2022-09-21T09:20:20.833Z,95183.91
2022-09-21T09:23:27.343Z,95177.47
2022-09-21T09:26:39.941Z,95176.69
2022-09-21T09:29:52.356Z,95172.16
2022-09-21T09:33:01.770Z,95166.81
2022-09-21T09:36:08.874Z,95159.91
2022-09-21T09:39:14.475Z,95164.66
2022-09-21T09:42:42.807Z,95154.97
2022-09-21T09:45:59.156Z,95148.00
2022-09-21T09:49:20.866Z,95148.78
2022-09-21T09:52:24.517Z,95142.38
2022-09-21T09:55:31.895Z,95140.47
2022-09-21T09:58:42.361Z,95145.81
2022-09-21T10:01:47.434Z,95139.09
2022-09-21T10:05:06.288Z,95134.06
2022-09-21T10:08:29.676Z,95125.75
2022-09-21T10:11:38.266Z,95131.59
2022-09-21T10:14:49.356Z,95122.22
2022-09-21T10:18:04.754Z,95132.09
2022-09-21T10:21:16.964Z,95119.56
2022-09-21T10:24:24.389Z,95119.84
2022-09-21T10:27:30.040Z,95113.59
2022-09-21T10:30:36.456Z,95109.06
2022-09-21T10:33:51.787Z,95115.50
2022-09-21T10:36:58.118Z,95115.00
2022-09-21T10:40:01.606Z,95099.63
2022-09-21T10:43:05.470Z,95106.88
2022-09-21T10:46:08.744Z,95098.88
2022-09-21T10:49:21.626Z,95085.09
2022-09-21T10:52:33.438Z,95078.47
2022-09-21T10:55:44.025Z,95060.56
2022-09-21T10:59:12.959Z,95087.44
2022-09-21T11:02:29.828Z,95086.19
2022-09-21T11:05:37.305Z,95081.94
2022-09-21T11:08:54.922Z,95077.41
2022-09-21T11:12:04.199Z,95060.25
2022-09-21T11:15:17.647Z,95064.78
2022-09-21T11:18:26.518Z,95072.16
2022-09-21T11:21:38.587Z,95067.94
2022-09-21T11:24:50.242Z,95065.56
2022-09-21T11:28:01.711Z,95071.38
2022-09-21T11:31:37.395Z,95062.91
2022-09-21T11:34:53.671Z,95065.09
2022-09-21T11:38:06.104Z,95067.75
2022-09-21T11:41:42.987Z,95055.78
2022-09-21T11:44:55.339Z,95060.38
2022-09-21T11:48:12.830Z,95062.56
2022-09-21T11:51:38.108Z,95062.09
2022-09-21T11:54:58.686Z,95071.34
2022-09-21T11:58:10.682Z,95074.31
2022-09-21T12:01:41.221Z,95073.16
2022-09-21T12:04:50.798Z,95100.16
2022-09-21T12:08:18.600Z,95093.25
2022-09-21T12:11:33.472Z,95102.16
2022-09-21T12:14:46.289Z,95109.66
2022-09-21T12:17:58.676Z,95101.09
2022-09-21T12:21:09.232Z,95100.06
2022-09-21T12:24:18.102Z,95109.34
2022-09-21T12:27:28.807Z,95104.91
2022-09-21T12:30:35.662Z,95118.44
2022-09-21T12:33:45.458Z,95109.66
2022-09-21T12:36:58.010Z,95115.75
2022-09-21T12:40:07.195Z,95100.78
2022-09-21T12:43:28.283Z,95109.94
2022-09-21T12:46:39.099Z,95103.81
2022-09-21T12:49:45.965Z,95104.31
2022-09-21T12:52:52.391Z,95099.41
2022-09-21T12:56:09.636Z,95104.91
2022-09-21T12:59:27.408Z,95097.22
2022-09-21T13:02:37.999Z,95095.47
2022-09-21T13:06:06.567Z,95088.25
2022-09-21T13:09:14.882Z,95089.06
2022-09-21T13:12:21.847Z,95101.28
2022-09-21T13:15:28.287Z,95085.13
2022-09-21T13:18:36.658Z,95085.13
2022-09-21T13:21:40.142Z,95090.13
2022-09-21T13:24:45.566Z,95087.78
2022-09-21T13:28:09.989Z,95086.50
2022-09-21T13:31:57.890Z,95089.19
2022-09-21T13:35:34.314Z,95085.41
2022-09-21T13:39:04.059Z,95082.75
2022-09-21T13:42:39.835Z,95087.00
2022-09-21T13:45:56.441Z,95081.66
2022-09-21T13:49:02.361Z,95083.72
2022-09-21T13:52:08.335Z,95078.69
2022-09-21T13:55:26.205Z,95071.81
2022-09-21T13:58:34.180Z,95083.25
2022-09-21T14:01:53.126Z,95069.22
2022-09-21T14:04:56.627Z,95063.63
2022-09-21T14:08:03.039Z,95073.97
2022-09-21T14:11:11.539Z,95069.44
2022-09-21T14:14:24.650Z,95067.88
2022-09-21T14:17:45.671Z,95059.50
2022-09-21T14:21:17.775Z,95053.06
2022-09-21T14:24:23.069Z,95056.53
2022-09-21T14:27:33.041Z,95050.41
2022-09-21T14:30:38.564Z,95055.44
2022-09-21T14:33:48.240Z,95051.19
2022-09-21T14:36:55.343Z,95056.22
2022-09-21T14:40:00.711Z,95035.47
2022-09-21T14:43:09.912Z,95053.69
2022-09-21T14:46:59.757Z,95054.78
2022-09-21T14:50:21.647Z,95057.44
2022-09-21T14:53:56.579Z,95055.09
2022-09-21T14:57:44.355Z,95052.59
2022-09-21T15:00:50.425Z,95048.66
2022-09-21T15:04:09.353Z,95055.38
2022-09-21T15:07:56.253Z,95061.81
2022-09-21T15:11:10.311Z,95056.47
2022-09-21T15:14:22.724Z,95054.91
2022-09-21T15:17:30.029Z,95063.38
2022-09-21T15:20:34.016Z,95077.00
2022-09-21T15:23:40.929Z,95069.88
2022-09-21T15:26:44.539Z,95075.22
2022-09-21T15:29:50.133Z,95069.63
2022-09-21T15:32:57.963Z,95071.28
2022-09-21T15:36:02.873Z,95087.16
2022-09-21T15:39:07.147Z,95069.03
2022-09-21T15:42:23.348Z,95084.88
2022-09-21T15:45:28.875Z,95087.72
2022-09-21T15:48:36.883Z,95091.50
2022-09-21T15:51:45.055Z,95102.91
2022-09-21T15:54:52.342Z,95099.69
2022-09-21T15:57:57.537Z,95100.66
2022-09-21T16:01:01.976Z,95104.59
2022-09-21T16:04:08.060Z,95103.50
2022-09-21T16:07:27.633Z,95099.56
2022-09-21T16:10:43.120Z,95118.47
2022-09-21T16:14:04.680Z,95115.19
2022-09-21T16:17:25.011Z,95118.53
2022-09-21T16:20:40.649Z,95126.81
2022-09-21T16:23:43.939Z,95128.41
2022-09-21T16:26:58.995Z,95129.97
2022-09-21T16:30:02.483Z,95127.59
2022-09-21T16:33:42.826Z,95142.50
2022-09-21T16:36:50.259Z,95131.84
2022-09-21T16:39:54.075Z,95132.16
2022-09-21T16:42:57.681Z,95136.38
2022-09-21T16:46:02.337Z,95138.56
2022-09-21T16:49:05.583Z,95140.44
2022-09-21T16:52:11.312Z,95147.16
2022-09-21T16:55:15.766Z,95153.59
2022-09-21T16:58:20.895Z,95156.03
2022-09-21T17:01:24.115Z,95160.88
2022-09-21T17:04:30.575Z,95167.28
2022-09-21T17:07:35.010Z,95175.56
2022-09-21T17:10:41.219Z,95172.44
2022-09-21T17:13:46.078Z,95170.56
2022-09-21T17:16:53.725Z,95178.06
2022-09-21T17:19:57.227Z,95176.78
2022-09-21T17:23:03.511Z,95179.16
2022-09-21T17:26:21.489Z,95191.84
2022-09-21T17:29:27.151Z,95186.63
2022-09-21T17:32:31.713Z,95186.31
2022-09-21T17:35:39.995Z,95196.06
2022-09-21T17:38:45.033Z,95199.22
2022-09-21T17:41:52.893Z,95205.56
2022-09-21T17:45:04.414Z,95203.38
2022-09-21T17:48:14.456Z,95203.94
2022-09-21T17:51:38.274Z,95215.63
2022-09-21T17:54:42.991Z,95219.88
2022-09-21T17:57:59.211Z,95215.63
2022-09-21T18:01:07.619Z,95220.34
2022-09-21T18:04:12.008Z,95229.44
2022-09-21T18:07:16.080Z,95231.19
2022-09-21T18:10:21.816Z,95225.09
2022-09-21T18:13:33.945Z,95224.59
2022-09-21T18:16:46.936Z,95231.00
2022-09-21T18:20:04.727Z,95234.34
2022-09-21T18:23:19.396Z,95237.13
2022-09-21T18:26:25.079Z,95241.06
2022-09-21T18:29:40.780Z,95237.06
2022-09-21T18:33:10.708Z,95245.59
2022-09-21T18:36:33.245Z,95253.78
2022-09-21T18:39:45.038Z,95250.78
2022-09-21T18:42:56.088Z,95253.13
2022-09-21T18:46:04.882Z,95246.69
2022-09-21T18:49:17.608Z,95244.78
2022-09-21T18:52:32.291Z,95254.25
2022-09-21T18:55:37.531Z,95242.28
2022-09-21T18:58:43.533Z,95252.50
2022-09-21T19:01:48.400Z,95256.59
2022-09-21T19:04:52.233Z,95248.25
2022-09-21T19:08:02.966Z,95259.91
2022-09-21T19:11:14.552Z,95254.41
2022-09-21T19:14:26.746Z,95256.16
2022-09-21T19:17:44.211Z,95254.56
2022-09-21T19:21:10.911Z,95251.25
2022-09-21T19:24:25.488Z,95248.25
2022-09-21T19:27:38.615Z,95248.09
2022-09-21T19:30:44.106Z,95249.34
2022-09-21T19:33:51.058Z,95242.25
2022-09-21T19:36:57.248Z,95245.25
2022-09-21T19:40:01.707Z,95230.16
2022-09-21T19:43:20.735Z,95235.59
2022-09-21T19:46:34.440Z,95242.97
2022-09-21T19:49:46.458Z,95242.66
2022-09-21T19:52:50.877Z,95245.66
2022-09-21T19:56:12.196Z,95241.22
2022-09-21T19:59:32.668Z,95243.44
2022-09-21T20:02:41.730Z,95239.91
2022-09-21T20:05:55.004Z,95244.81
2022-09-21T20:09:05.548Z,95247.41
2022-09-21T20:12:18.633Z,95248.75
2022-09-21T20:15:28.783Z,95255.16
2022-09-21T20:18:41.867Z,95254.81
2022-09-21T20:21:46.388Z,95267.41
2022-09-21T20:24:59.314Z,95267.00
2022-09-21T20:28:03.979Z,95264.75
2022-09-21T20:31:07.171Z,95263.19
2022-09-21T20:34:12.255Z,95265.00
2022-09-21T20:37:17.705Z,95244.47
2022-09-21T20:40:25.166Z,95262.88
2022-09-21T20:43:32.648Z,95266.28
2022-09-21T20:46:35.950Z,95265.56
2022-09-21T20:49:40.933Z,95258.00
2022-09-21T20:52:45.324Z,95263.44
2022-09-21T20:55:55.148Z,95260.47
2022-09-21T20:58:59.415Z,95267.59
2022-09-21T21:02:02.726Z,95267.00
2022-09-21T21:05:08.911Z,95268.19
2022-09-21T21:08:11.974Z,95264.44
2022-09-21T21:11:15.575Z,95263.59
2022-09-21T21:14:18.662Z,95267.81
2022-09-21T21:17:21.796Z,95267.22
2022-09-21T21:20:26.339Z,95270.78
2022-09-21T21:23:30.844Z,95268.66
2022-09-21T21:27:00.180Z,95265.50
2022-09-21T21:29:57.122Z,95266.31
2022-09-21T21:33:00.233Z,95268.00
2022-09-21T21:36:08.393Z,95254.19
2022-09-21T21:39:11.794Z,95265.16
2022-09-21T21:42:15.790Z,95266.53
2022-09-21T21:45:21.550Z,95261.28
2022-09-21T21:48:25.518Z,95260.72
2022-09-21T21:51:30.413Z,95263.38
2022-09-21T21:54:33.958Z,95263.66
2022-09-21T21:57:37.023Z,95267.09
2022-09-21T22:00:40.157Z,95267.22
2022-09-21T22:03:43.731Z,95266.13
2022-09-21T22:06:49.664Z,95256.84
2022-09-21T22:09:52.683Z,95263.75
2022-09-21T22:12:57.155Z,95258.25
2022-09-21T22:16:05.500Z,95258.84
2022-09-21T22:19:10.174Z,95251.66
2022-09-21T22:22:14.717Z,95249.28
2022-09-21T22:25:18.071Z,95247.19
2022-09-21T22:28:21.252Z,95247.19
2022-09-21T22:31:27.559Z,95240.28
2022-09-21T22:34:30.782Z,95248.28
2022-09-21T22:37:35.252Z,95246.41
2022-09-21T22:40:38.710Z,95250.44
2022-09-21T22:43:42.532Z,95252.31
2022-09-21T22:46:45.596Z,95261.19
2022-09-21T22:49:48.617Z,95261.09
2022-09-21T22:52:53.078Z,95263.88
2022-09-21T22:56:04.444Z,95263.88
2022-09-21T22:59:08.475Z,95260.59
2022-09-21T23:02:11.648Z,95264.66
2022-09-21T23:05:14.906Z,95263.66
2022-09-21T23:08:19.332Z,95272.44
2022-09-21T23:11:24.540Z,95270.09
2022-09-21T23:14:27.563Z,95260.22
2022-09-21T23:17:31.539Z,95262.41
2022-09-21T23:20:34.584Z,95263.19
2022-09-21T23:23:39.110Z,95267.72
2022-09-21T23:26:42.623Z,95261.91
2022-09-21T23:29:45.661Z,95258.44
2022-09-21T23:32:48.721Z,95262.41
2022-09-21T23:35:52.002Z,95259.25
2022-09-21T23:38:57.323Z,95257.63
2022-09-21T23:42:00.904Z,95259.25
2022-09-21T23:45:05.097Z,95256.56
2022-09-21T23:48:08.181Z,95255.75
2022-09-21T23:51:11.866Z,95251.03
2022-09-21T23:54:16.446Z,95253.69
2022-09-21T23:57:20.306Z,95253.19
